createdAt,value
2022-09-27T00:02:20.926Z,0
2022-09-27T00:07:14.179Z,0
2022-09-27T00:09:40.799Z,0
2022-09-27T00:12:16.933Z,0
2022-09-27T00:14:34.029Z,0
2022-09-27T00:17:00.707Z,0
2022-09-27T00:19:27.282Z,0
2022-09-27T00:21:53.954Z,0
2022-09-27T00:24:20.522Z,0
2022-09-27T00:26:47.179Z,0
2022-09-27T00:29:13.774Z,0
2022-09-27T00:31:40.450Z,0
2022-09-27T00:34:05.527Z,0
2022-09-27T00:36:32.164Z,0
2022-09-27T00:38:58.775Z,0
2022-09-27T00:41:25.402Z,0
2022-09-27T00:43:52.025Z,0
2022-09-27T00:46:18.638Z,0
2022-09-27T00:48:45.279Z,0
2022-09-27T00:51:11.883Z,0
2022-09-27T00:53:37.026Z,0
2022-09-27T00:56:02.146Z,0
2022-09-27T00:58:28.765Z,0
2022-09-27T01:00:55.383Z,0
2022-09-27T01:03:22.017Z,0
2022-09-27T01:08:15.290Z,0
2022-09-27T01:13:08.512Z,0
2022-09-27T01:15:35.128Z,0
2022-09-27T01:18:01.754Z,0
2022-09-27T01:20:28.398Z,0
2022-09-27T01:22:55.008Z,0
2022-09-27T01:25:21.614Z,0
2022-09-27T01:27:46.763Z,0
2022-09-27T01:30:11.889Z,0
2022-09-27T01:37:31.771Z,0
2022-09-27T01:39:58.390Z,0
2022-09-27T01:42:25.003Z,0
2022-09-27T01:47:16.756Z,0
2022-09-27T01:49:43.386Z,0
2022-09-27T01:52:08.554Z,0
2022-09-27T01:54:35.126Z,0
2022-09-27T01:57:01.790Z,0
2022-09-27T01:59:28.377Z,0
2022-09-27T02:04:21.671Z,0
2022-09-27T02:06:48.253Z,0
2022-09-27T02:09:14.869Z,0
2022-09-27T02:11:41.493Z,0
2022-09-27T02:14:08.111Z,0
2022-09-27T02:16:34.750Z,0
2022-09-27T02:19:01.363Z,0
2022-09-27T02:21:27.990Z,0
2022-09-27T02:23:53.113Z,0
2022-09-27T02:26:19.730Z,0
2022-09-27T02:28:46.353Z,0
2022-09-27T02:31:12.989Z,0
2022-09-27T02:33:39.638Z,0
2022-09-27T02:36:06.240Z,0
2022-09-27T02:38:32.847Z,0
2022-09-27T02:40:58.011Z,0
2022-09-27T02:43:23.141Z,0
2022-09-27T02:45:49.735Z,0
2022-09-27T02:50:42.979Z,0
2022-09-27T02:53:09.592Z,0
2022-09-27T02:55:36.230Z,0
2022-09-27T02:58:02.848Z,0
2022-09-27T03:00:29.474Z,0
2022-09-27T03:02:56.100Z,0
2022-09-27T03:05:22.724Z,0
2022-09-27T03:07:49.345Z,0
2022-09-27T03:10:15.950Z,0
2022-09-27T03:12:42.596Z,0
2022-09-27T03:15:09.210Z,0
2022-09-27T03:17:34.334Z,0
2022-09-27T03:22:27.586Z,0
2022-09-27T03:24:52.713Z,0
2022-09-27T03:27:17.842Z,0
2022-09-27T03:29:44.500Z,0
2022-09-27T03:32:11.086Z,0
2022-09-27T03:34:37.712Z,0
2022-09-27T03:39:30.950Z,0
2022-09-27T03:44:24.215Z,0
2022-09-27T03:46:50.819Z,0
2022-09-27T03:51:44.076Z,0
2022-09-27T03:54:10.697Z,0
2022-09-27T03:56:37.315Z,0
2022-09-27T03:59:02.440Z,0
2022-09-27T04:01:29.061Z,0
2022-09-27T04:03:55.688Z,0
2022-09-27T04:06:22.317Z,0
2022-09-27T04:08:48.939Z,0
2022-09-27T04:11:15.558Z,0
2022-09-27T04:13:42.174Z,0
2022-09-27T04:16:08.787Z,0
2022-09-27T04:21:02.054Z,0
2022-09-27T04:23:28.685Z,0
2022-09-27T04:25:55.307Z,0
2022-09-27T04:30:48.537Z,0
2022-09-27T04:33:13.678Z,0
2022-09-27T04:35:40.286Z,0
2022-09-27T04:38:06.920Z,0
2022-09-27T04:40:33.546Z,0
2022-09-27T04:43:00.150Z,0
2022-09-27T04:45:26.791Z,0
2022-09-27T04:47:53.430Z,0
2022-09-27T04:50:20.023Z,0
2022-09-27T04:52:46.700Z,0
2022-09-27T04:55:13.320Z,4
2022-09-27T04:57:39.901Z,0
2022-09-27T05:00:06.539Z,4
2022-09-27T05:02:33.187Z,8
2022-09-27T05:04:58.304Z,8
2022-09-27T05:07:24.899Z,12
2022-09-27T05:09:51.557Z,12
2022-09-27T05:12:16.687Z,12
2022-09-27T05:14:41.800Z,24
2022-09-27T05:17:08.405Z,32
2022-09-27T05:19:35.014Z,24
2022-09-27T05:22:01.670Z,40
2022-09-27T05:24:28.272Z,96
2022-09-27T05:26:54.889Z,44
2022-09-27T05:29:21.533Z,56
2022-09-27T05:31:48.187Z,48
2022-09-27T05:34:14.757Z,56
2022-09-27T05:36:41.399Z,64
2022-09-27T05:39:06.530Z,60
2022-09-27T05:41:31.631Z,92
2022-09-27T05:43:58.266Z,96
2022-09-27T05:46:25.006Z,96
2022-09-27T05:48:51.585Z,144
2022-09-27T05:51:18.137Z,228
2022-09-27T05:53:44.754Z,176
2022-09-27T05:56:11.382Z,244
2022-09-27T05:58:37.998Z,277
2022-09-27T06:01:04.678Z,325
2022-09-27T06:03:31.251Z,622
2022-09-27T06:05:57.884Z,265
2022-09-27T06:08:24.532Z,192
2022-09-27T06:10:51.134Z,156
2022-09-27T06:13:16.289Z,128
2022-09-27T06:15:42.859Z,152
2022-09-27T06:18:09.491Z,128
2022-09-27T06:20:36.093Z,212
2022-09-27T06:23:02.715Z,501
2022-09-27T06:25:29.355Z,485
2022-09-27T06:27:55.969Z,1811
2022-09-27T06:35:15.912Z,441
2022-09-27T06:37:42.463Z,361
2022-09-27T06:40:09.083Z,293
2022-09-27T06:42:35.704Z,293
2022-09-27T06:45:00.857Z,381
2022-09-27T06:47:27.467Z,931
2022-09-27T06:49:54.085Z,1385
2022-09-27T06:52:20.706Z,2497
2022-09-27T06:54:47.338Z,2248
2022-09-27T06:57:13.954Z,1650
2022-09-27T06:59:40.603Z,3035
2022-09-27T07:02:07.193Z,2911
2022-09-27T07:04:33.841Z,6139
2022-09-27T07:07:00.442Z,8673
2022-09-27T07:09:27.222Z,5264
2022-09-27T07:11:53.682Z,3577
2022-09-27T07:14:20.308Z,5417
2022-09-27T07:19:13.640Z,3577
2022-09-27T07:21:38.692Z,3433
2022-09-27T07:24:03.849Z,3794
2022-09-27T07:26:30.596Z,3626
2022-09-27T07:28:57.070Z,2453
2022-09-27T07:31:23.912Z,2188
2022-09-27T07:33:50.304Z,1899
2022-09-27T07:36:16.924Z,2517
2022-09-27T07:38:43.550Z,3059
2022-09-27T07:41:10.314Z,1313
2022-09-27T07:43:36.813Z,1409
2022-09-27T07:48:30.049Z,1782
2022-09-27T07:50:56.657Z,1799
2022-09-27T07:53:23.300Z,1975
2022-09-27T07:55:48.409Z,2329
2022-09-27T07:58:15.054Z,2654
2022-09-27T08:00:41.659Z,3694
2022-09-27T08:03:08.281Z,3618
2022-09-27T08:05:34.899Z,1437
2022-09-27T08:08:01.536Z,1550
2022-09-27T08:10:28.156Z,2180
2022-09-27T08:12:55.029Z,4722
2022-09-27T08:15:19.907Z,7561
2022-09-27T08:17:45.056Z,17669
2022-09-27T08:20:11.717Z,14436
2022-09-27T08:22:38.275Z,15323
2022-09-27T08:25:04.911Z,7469
2022-09-27T08:27:31.531Z,7465
2022-09-27T08:29:58.147Z,8123
2022-09-27T08:32:24.775Z,11990
2022-09-27T08:34:51.400Z,5678
2022-09-27T08:37:18.049Z,3035
2022-09-27T08:39:44.638Z,2814
2022-09-27T08:42:11.267Z,2357
2022-09-27T08:44:37.889Z,2369
2022-09-27T08:47:04.517Z,2995
2022-09-27T08:49:29.639Z,4477
2022-09-27T08:51:56.260Z,9549
2022-09-27T08:54:22.890Z,9099
2022-09-27T08:56:49.523Z,15492
2022-09-27T08:59:16.134Z,5947
2022-09-27T09:01:42.804Z,7573
2022-09-27T09:04:09.387Z,6212
2022-09-27T09:06:36.063Z,7581
2022-09-27T09:09:02.616Z,3549
2022-09-27T09:13:55.874Z,2570
2022-09-27T09:16:22.483Z,3076
2022-09-27T09:18:49.113Z,2939
2022-09-27T09:23:40.872Z,5654
2022-09-27T09:26:07.500Z,8493
2022-09-27T09:28:34.117Z,10151
2022-09-27T09:31:00.735Z,13998
2022-09-27T09:33:27.351Z,4128
2022-09-27T09:35:53.987Z,10456
2022-09-27T09:38:20.602Z,9051
2022-09-27T09:40:47.224Z,6417
2022-09-27T09:43:13.849Z,5188
2022-09-27T09:45:40.461Z,13488
2022-09-27T09:48:07.088Z,10352
2022-09-27T09:50:33.727Z,12071
2022-09-27T09:52:58.843Z,8212
2022-09-27T09:55:25.467Z,6601
2022-09-27T09:57:52.081Z,6786
2022-09-27T10:00:18.695Z,6931
2022-09-27T10:02:43.853Z,7368
2022-09-27T10:07:37.094Z,7404
2022-09-27T10:12:30.331Z,5124
2022-09-27T10:14:55.510Z,5642
2022-09-27T10:17:20.589Z,6344
2022-09-27T10:19:47.225Z,5589
2022-09-27T10:22:13.827Z,6417
2022-09-27T10:27:07.141Z,8983
2022-09-27T10:29:33.715Z,9942
2022-09-27T10:32:00.330Z,8774
2022-09-27T10:34:26.987Z,7565
2022-09-27T10:36:53.838Z,7621
2022-09-27T10:39:20.184Z,4923
2022-09-27T10:41:46.811Z,4911
2022-09-27T10:44:13.436Z,6368
2022-09-27T10:46:40.066Z,8284
2022-09-27T10:49:05.181Z,4553
2022-09-27T10:51:31.842Z,2493
2022-09-27T10:53:58.463Z,3176
2022-09-27T10:56:25.048Z,1947
2022-09-27T10:58:51.690Z,1991
2022-09-27T11:06:11.542Z,5256
2022-09-27T11:08:36.681Z,7686
2022-09-27T11:11:01.806Z,8404
2022-09-27T11:13:28.418Z,9424
2022-09-27T11:15:55.176Z,6870
2022-09-27T11:18:21.655Z,7806
2022-09-27T11:20:48.292Z,7762
2022-09-27T11:23:14.921Z,6678
2022-09-27T11:25:41.531Z,5766
2022-09-27T11:28:08.168Z,4284
2022-09-27T11:30:34.789Z,4039
2022-09-27T11:33:01.414Z,4164
2022-09-27T11:35:26.544Z,4176
2022-09-27T11:37:51.671Z,3228
2022-09-27T11:40:18.294Z,5232
2022-09-27T11:42:44.932Z,5360
2022-09-27T11:45:11.566Z,4340
2022-09-27T11:47:38.165Z,3345
2022-09-27T11:50:04.781Z,3272
2022-09-27T11:52:31.407Z,4220
2022-09-27T11:54:58.033Z,4336
2022-09-27T11:57:24.665Z,3654
2022-09-27T11:59:51.300Z,2987
2022-09-27T12:02:16.409Z,2666
2022-09-27T12:04:41.538Z,2738
2022-09-27T12:09:34.787Z,1582
2022-09-27T12:12:01.422Z,1417
2022-09-27T12:16:54.662Z,1694
2022-09-27T12:19:21.277Z,1590
2022-09-27T12:24:14.519Z,518
2022-09-27T12:26:41.300Z,1007
2022-09-27T12:29:07.911Z,1782
2022-09-27T12:31:34.386Z,2140
2022-09-27T12:34:01.161Z,2216
2022-09-27T12:36:27.809Z,1811
2022-09-27T12:38:52.939Z,2204
2022-09-27T12:41:19.521Z,1923
2022-09-27T12:43:44.686Z,1188
2022-09-27T12:46:11.287Z,1578
2022-09-27T12:48:37.929Z,1393
2022-09-27T12:51:04.528Z,2305
2022-09-27T12:53:31.124Z,3244
2022-09-27T12:55:57.778Z,2481
2022-09-27T12:58:24.435Z,2305
2022-09-27T13:00:51.042Z,2806
2022-09-27T13:03:17.682Z,2557
2022-09-27T13:08:09.387Z,3887
2022-09-27T13:10:34.525Z,3987
2022-09-27T13:13:01.166Z,3650
2022-09-27T13:15:27.775Z,3501
2022-09-27T13:17:54.393Z,3248
2022-09-27T13:20:20.984Z,3365
2022-09-27T13:22:47.657Z,2385
2022-09-27T13:25:14.266Z,4389
2022-09-27T13:27:40.898Z,5220
2022-09-27T13:30:07.506Z,3405
2022-09-27T13:32:32.657Z,2309
2022-09-27T13:34:57.791Z,3537
2022-09-27T13:37:24.409Z,2369
2022-09-27T13:39:51.033Z,3252
2022-09-27T13:42:17.654Z,2855
2022-09-27T13:44:44.270Z,1734
2022-09-27T13:47:10.872Z,983
2022-09-27T13:49:37.520Z,835
2022-09-27T13:52:04.131Z,1212
2022-09-27T13:54:30.735Z,1132
2022-09-27T13:56:57.396Z,662
2022-09-27T13:59:23.959Z,1377
2022-09-27T14:01:50.618Z,1060
2022-09-27T14:04:17.245Z,1212
2022-09-27T14:06:42.372Z,1180
2022-09-27T14:09:08.928Z,2361
2022-09-27T14:11:35.596Z,979
2022-09-27T14:14:02.187Z,714
2022-09-27T14:16:28.856Z,1999
2022-09-27T14:23:48.747Z,1718
2022-09-27T14:26:15.319Z,1465
2022-09-27T14:28:41.958Z,951
2022-09-27T14:31:08.548Z,847
2022-09-27T14:36:01.842Z,550
2022-09-27T14:40:53.582Z,514
2022-09-27T14:43:18.717Z,445
2022-09-27T14:45:45.310Z,429
2022-09-27T14:50:36.960Z,678
2022-09-27T14:53:03.581Z,2064
2022-09-27T14:55:30.328Z,3421
2022-09-27T14:57:56.812Z,3027
2022-09-27T15:00:23.577Z,1630
2022-09-27T15:05:16.778Z,1578
2022-09-27T15:10:10.114Z,771
2022-09-27T15:12:36.707Z,1533
2022-09-27T15:15:03.255Z,1445
2022-09-27T15:19:56.589Z,1843
2022-09-27T15:24:48.183Z,1036
2022-09-27T15:27:13.375Z,1401
2022-09-27T15:29:40.086Z,1208
2022-09-27T15:32:05.054Z,742
2022-09-27T15:34:31.748Z,787
2022-09-27T15:39:25.099Z,694
2022-09-27T15:44:18.370Z,622
2022-09-27T15:46:44.937Z,702
2022-09-27T15:49:11.571Z,526
2022-09-27T15:51:38.184Z,257
2022-09-27T15:54:04.832Z,337
2022-09-27T15:58:57.942Z,1028
2022-09-27T16:01:24.698Z,803
2022-09-27T16:03:49.805Z,634
2022-09-27T16:06:16.405Z,530
2022-09-27T16:08:43.053Z,562
2022-09-27T16:13:36.314Z,694
2022-09-27T16:18:29.549Z,437
2022-09-27T16:20:56.191Z,646
2022-09-27T16:23:22.800Z,505
2022-09-27T16:28:16.066Z,417
2022-09-27T16:33:09.269Z,317
2022-09-27T16:35:34.285Z,317
2022-09-27T16:38:01.010Z,313
2022-09-27T16:42:54.223Z,224
2022-09-27T16:47:47.557Z,164
2022-09-27T16:50:14.019Z,192
2022-09-27T16:52:40.790Z,172
2022-09-27T16:57:33.927Z,120
2022-09-27T17:00:00.582Z,108
2022-09-27T17:02:27.133Z,104
2022-09-27T17:12:13.737Z,44
2022-09-27T17:14:38.854Z,32
2022-09-27T17:17:05.382Z,20
2022-09-27T17:19:32.015Z,16
2022-09-27T17:21:58.713Z,8
2022-09-27T17:24:25.363Z,4
2022-09-27T17:26:51.886Z,4
2022-09-27T17:29:18.490Z,0
2022-09-27T17:34:11.883Z,0
2022-09-27T17:39:04.987Z,0
2022-09-27T17:41:31.705Z,0
2022-09-27T17:43:58.219Z,0
2022-09-27T17:46:23.373Z,0
2022-09-27T17:48:50.077Z,0
2022-09-27T17:51:16.624Z,0
2022-09-27T17:53:43.233Z,0
2022-09-27T17:56:09.896Z,0
2022-09-27T17:58:36.554Z,0
2022-09-27T18:01:03.256Z,0
2022-09-27T18:03:29.733Z,0
2022-09-27T18:05:56.414Z,0
2022-09-27T18:08:22.964Z,0
2022-09-27T18:10:49.628Z,0
2022-09-27T18:13:14.913Z,0
2022-09-27T18:15:41.333Z,0
2022-09-27T18:18:08.097Z,0
2022-09-27T18:20:34.732Z,0
2022-09-27T18:23:01.306Z,0
2022-09-27T18:25:26.349Z,0
2022-09-27T18:27:51.469Z,0
2022-09-27T18:30:18.100Z,0
2022-09-27T18:32:44.755Z,0
2022-09-27T18:35:11.338Z,0
2022-09-27T18:37:37.967Z,0
2022-09-27T18:40:04.584Z,0
2022-09-27T18:42:31.360Z,0
2022-09-27T18:44:57.850Z,0
2022-09-27T18:47:24.455Z,0
2022-09-27T18:49:51.105Z,0
2022-09-27T18:52:17.802Z,0
2022-09-27T18:54:42.927Z,0
2022-09-27T18:57:08.119Z,0
2022-09-27T19:02:01.230Z,0
2022-09-27T19:04:27.918Z,0
2022-09-27T19:06:54.468Z,0
2022-09-27T19:09:21.065Z,0
2022-09-27T19:11:47.832Z,0
2022-09-27T19:14:14.315Z,0
2022-09-27T19:16:40.969Z,0
2022-09-27T19:19:07.547Z,0
2022-09-27T19:21:34.261Z,0
2022-09-27T19:24:00.856Z,0
2022-09-27T19:26:27.499Z,0
2022-09-27T19:28:52.565Z,0
2022-09-27T19:31:19.295Z,0
2022-09-27T19:33:45.875Z,0
2022-09-27T19:38:39.096Z,0
2022-09-27T19:41:04.263Z,0
2022-09-27T19:43:30.962Z,0
2022-09-27T19:48:22.590Z,0
2022-09-27T19:53:15.887Z,0
2022-09-27T19:55:42.427Z,0
2022-09-27T19:58:09.138Z,0
2022-09-27T20:00:35.711Z,0
2022-09-27T20:03:02.386Z,0
2022-09-27T20:07:55.553Z,0
2022-09-27T20:10:22.144Z,0
2022-09-27T20:12:48.799Z,0
2022-09-27T20:15:13.914Z,0
2022-09-27T20:17:39.041Z,0
2022-09-27T20:22:32.283Z,0
2022-09-27T20:27:25.537Z,0
2022-09-27T20:29:52.152Z,0
2022-09-27T20:32:18.770Z,0
2022-09-27T20:34:45.398Z,0
2022-09-27T20:37:12.008Z,0
2022-09-27T20:39:38.640Z,0
2022-09-27T20:42:05.258Z,0
2022-09-27T20:44:31.881Z,0
2022-09-27T20:46:58.545Z,0
2022-09-27T20:51:50.272Z,0
2022-09-27T20:54:16.896Z,0
2022-09-27T20:56:43.504Z,0
2022-09-27T20:59:10.136Z,0
2022-09-27T21:01:36.835Z,0
2022-09-27T21:04:03.438Z,0
2022-09-27T21:06:30.000Z,0
2022-09-27T21:08:56.628Z,0
2022-09-27T21:11:23.242Z,0
2022-09-27T21:13:49.902Z,0
2022-09-27T21:16:16.510Z,0
2022-09-27T21:18:41.613Z,0
2022-09-27T21:21:08.244Z,0
2022-09-27T21:23:33.376Z,0
2022-09-27T21:25:59.995Z,0
2022-09-27T21:28:26.633Z,0
2022-09-27T21:30:53.239Z,0
2022-09-27T21:33:19.904Z,0
2022-09-27T21:35:46.504Z,0
2022-09-27T21:38:13.117Z,0
2022-09-27T21:40:39.737Z,0
2022-09-27T21:43:06.354Z,0
2022-09-27T21:45:31.491Z,0
2022-09-27T21:47:56.624Z,0
2022-09-27T21:50:23.248Z,0
2022-09-27T21:52:49.866Z,0
2022-09-27T21:55:16.484Z,0
2022-09-27T21:57:43.109Z,0
2022-09-27T22:00:09.726Z,0
2022-09-27T22:02:36.363Z,0
2022-09-27T22:05:02.986Z,0
2022-09-27T22:07:29.598Z,0
2022-09-27T22:09:56.223Z,0
2022-09-27T22:12:22.863Z,0
2022-09-27T22:14:49.470Z,0
2022-09-27T22:19:42.731Z,0
2022-09-27T22:22:09.355Z,0
2022-09-27T22:24:34.483Z,0
2022-09-27T22:27:01.089Z,0
2022-09-27T22:29:27.725Z,0
2022-09-27T22:31:54.358Z,0
2022-09-27T22:36:47.592Z,0
2022-09-27T22:41:40.834Z,0
2022-09-27T22:44:05.962Z,0
2022-09-27T22:46:31.097Z,0
2022-09-27T22:48:57.706Z,0
2022-09-27T22:51:24.334Z,0
2022-09-27T22:53:50.968Z,0
2022-09-27T22:56:17.587Z,0
2022-09-27T22:58:44.216Z,0
2022-09-27T23:01:10.822Z,0
2022-09-27T23:03:37.440Z,0
2022-09-27T23:08:30.692Z,0
2022-09-27T23:10:57.323Z,0
2022-09-27T23:18:17.195Z,0
2022-09-27T23:23:09.157Z,0
2022-09-27T23:25:35.580Z,0
2022-09-27T23:28:00.709Z,0
2022-09-27T23:37:45.699Z,0
2022-09-27T23:40:12.324Z,0
2022-09-27T23:42:38.952Z,0
2022-09-27T23:47:32.188Z,0
2022-09-27T23:49:58.822Z,0
2022-09-27T23:52:25.428Z,0
2022-09-27T23:54:52.071Z,0
2022-09-27T23:57:18.679Z,0
